sensor_id;sensor_type;location;lat;lon;timestamp;pressure;altitude;pressure_sealevel;temperature;humidity
5522;BME280;2783;48.730;8.006;2023-03-14T00:01:17;98449.41;;;12.92;100.00
5522;BME280;2783;48.730;8.006;2023-03-14T00:03:42;98436.94;;;12.93;100.00
5522;BME280;2783;48.730;8.006;2023-03-14T00:06:08;98435.66;;;12.98;100.00
5522;BME280;2783;48.730;8.006;2023-03-14T00:08:34;98442.31;;;13.05;100.00
5522;BME280;2783;48.730;8.006;2023-03-14T00:11:06;98435.84;;;13.09;100.00
5522;BME280;2783;48.730;8.006;2023-03-14T00:13:32;98440.00;;;13.13;100.00
5522;BME280;2783;48.730;8.006;2023-03-14T00:16:30;98431.44;;;13.08;100.00
5522;BME280;2783;48.730;8.006;2023-03-14T00:18:49;98432.94;;;13.12;100.00
5522;BME280;2783;48.730;8.006;2023-03-14T00:21:14;98423.53;;;13.07;100.00
5522;BME280;2783;48.730;8.006;2023-03-14T00:23:40;98438.28;;;13.12;100.00
5522;BME280;2783;48.730;8.006;2023-03-14T00:26:12;98444.38;;;13.14;100.00
5522;BME280;2783;48.730;8.006;2023-03-14T00:28:38;98444.28;;;13.16;100.00
5522;BME280;2783;48.730;8.006;2023-03-14T00:31:06;98445.00;;;13.18;100.00
5522;BME280;2783;48.730;8.006;2023-03-14T00:33:32;98456.00;;;13.13;100.00
5522;BME280;2783;48.730;8.006;2023-03-14T00:36:00;98464.78;;;13.15;100.00
5522;BME280;2783;48.730;8.006;2023-03-14T00:38:26;98458.56;;;13.15;100.00
5522;BME280;2783;48.730;8.006;2023-03-14T00:40:52;98474.38;;;13.18;100.00
5522;BME280;2783;48.730;8.006;2023-03-14T00:43:18;98486.69;;;13.20;100.00
5522;BME280;2783;48.730;8.006;2023-03-14T00:45:43;98480.59;;;13.18;100.00
5522;BME280;2783;48.730;8.006;2023-03-14T00:48:09;98479.00;;;13.16;100.00
5522;BME280;2783;48.730;8.006;2023-03-14T00:50:34;98481.44;;;13.19;100.00
5522;BME280;2783;48.730;8.006;2023-03-14T00:52:59;98488.59;;;13.18;100.00
5522;BME280;2783;48.730;8.006;2023-03-14T00:55:25;98478.88;;;13.17;100.00
5522;BME280;2783;48.730;8.006;2023-03-14T00:57:50;98469.47;;;13.12;100.00
5522;BME280;2783;48.730;8.006;2023-03-14T01:00:15;98456.00;;;13.13;100.00
5522;BME280;2783;48.730;8.006;2023-03-14T01:02:41;98454.69;;;13.06;100.00
5522;BME280;2783;48.730;8.006;2023-03-14T01:05:06;98445.53;;;13.10;100.00
5522;BME280;2783;48.730;8.006;2023-03-14T01:07:32;98446.31;;;13.12;100.00
5522;BME280;2783;48.730;8.006;2023-03-14T01:09:57;98442.53;;;13.02;100.00
5522;BME280;2783;48.730;8.006;2023-03-14T01:12:23;98429.56;;;12.96;100.00
5522;BME280;2783;48.730;8.006;2023-03-14T01:14:48;98428.41;;;13.00;100.00
5522;BME280;2783;48.730;8.006;2023-03-14T01:17:13;98432.72;;;13.03;100.00
5522;BME280;2783;48.730;8.006;2023-03-14T01:19:38;98435.66;;;12.98;100.00
5522;BME280;2783;48.730;8.006;2023-03-14T01:22:04;98436.50;;;12.99;100.00
5522;BME280;2783;48.730;8.006;2023-03-14T01:24:29;98433.94;;;12.97;100.00
5522;BME280;2783;48.730;8.006;2023-03-14T01:26:54;98424.97;;;12.98;100.00
5522;BME280;2783;48.730;8.006;2023-03-14T01:29:20;98421.28;;;13.01;100.00
5522;BME280;2783;48.730;8.006;2023-03-14T01:31:45;98409.72;;;13.00;100.00
5522;BME280;2783;48.730;8.006;2023-03-14T01:34:10;98403.63;;;12.98;100.00
5522;BME280;2783;48.730;8.006;2023-03-14T01:36:35;98397.75;;;12.93;100.00
5522;BME280;2783;48.730;8.006;2023-03-14T01:39:01;98379.50;;;13.00;100.00
5522;BME280;2783;48.730;8.006;2023-03-14T01:41:26;98389.34;;;12.99;100.00
5522;BME280;2783;48.730;8.006;2023-03-14T01:43:52;98371.59;;;12.98;100.00
5522;BME280;2783;48.730;8.006;2023-03-14T01:46:19;98375.44;;;12.94;100.00
5522;BME280;2783;48.730;8.006;2023-03-14T01:51:21;98388.78;;;12.94;100.00
5522;BME280;2783;48.730;8.006;2023-03-14T01:53:48;98399.13;;;12.86;100.00
5522;BME280;2783;48.730;8.006;2023-03-14T01:56:13;98393.81;;;12.86;100.00
5522;BME280;2783;48.730;8.006;2023-03-14T01:58:40;98403.16;;;12.79;100.00
5522;BME280;2783;48.730;8.006;2023-03-14T02:01:06;98417.44;;;12.78;100.00
5522;BME280;2783;48.730;8.006;2023-03-14T02:03:35;98408.50;;;12.79;100.00
5522;BME280;2783;48.730;8.006;2023-03-14T02:06:03;98411.28;;;12.78;100.00
5522;BME280;2783;48.730;8.006;2023-03-14T02:08:30;98407.75;;;12.77;100.00
5522;BME280;2783;48.730;8.006;2023-03-14T02:10:56;98394.41;;;12.77;100.00
5522;BME280;2783;48.730;8.006;2023-03-14T02:13:21;98383.94;;;12.74;100.00
5522;BME280;2783;48.730;8.006;2023-03-14T02:15:46;98388.63;;;12.71;100.00
5522;BME280;2783;48.730;8.006;2023-03-14T02:18:12;98392.91;;;12.73;100.00
5522;BME280;2783;48.730;8.006;2023-03-14T02:20:39;98381.47;;;12.71;100.00
5522;BME280;2783;48.730;8.006;2023-03-14T02:23:05;98377.94;;;12.71;100.00
5522;BME280;2783;48.730;8.006;2023-03-14T02:25:38;98377.31;;;12.67;99.77
5522;BME280;2783;48.730;8.006;2023-03-14T02:28:05;98378.81;;;12.71;99.97
5522;BME280;2783;48.730;8.006;2023-03-14T02:30:31;98369.94;;;12.71;99.91
5522;BME280;2783;48.730;8.006;2023-03-14T02:33:01;98378.81;;;12.71;99.50
5522;BME280;2783;48.730;8.006;2023-03-14T02:35:29;98374.63;;;12.67;99.60
5522;BME280;2783;48.730;8.006;2023-03-14T02:40:23;98386.06;;;12.69;99.21
5522;BME280;2783;48.730;8.006;2023-03-14T02:42:48;98396.94;;;12.66;98.78
5522;BME280;2783;48.730;8.006;2023-03-14T02:47:40;98371.03;;;12.68;98.36
5522;BME280;2783;48.730;8.006;2023-03-14T02:50:09;98371.75;;;12.70;98.73
5522;BME280;2783;48.730;8.006;2023-03-14T02:52:35;98360.53;;;12.65;98.43
5522;BME280;2783;48.730;8.006;2023-03-14T02:55:00;98362.66;;;12.60;97.59
5522;BME280;2783;48.730;8.006;2023-03-14T02:57:25;98345.06;;;12.58;97.75
5522;BME280;2783;48.730;8.006;2023-03-14T02:59:51;98341.31;;;12.60;97.08
5522;BME280;2783;48.730;8.006;2023-03-14T03:02:16;98335.91;;;12.62;97.66
5522;BME280;2783;48.730;8.006;2023-03-14T03:04:41;98336.19;;;12.57;96.17
5522;BME280;2783;48.730;8.006;2023-03-14T03:07:07;98329.16;;;12.56;95.90
5522;BME280;2783;48.730;8.006;2023-03-14T03:09:32;98332.47;;;12.60;95.55
5522;BME280;2783;48.730;8.006;2023-03-14T03:11:57;98311.16;;;12.60;94.69
5522;BME280;2783;48.730;8.006;2023-03-14T03:14:22;98306.56;;;12.62;93.81
5522;BME280;2783;48.730;8.006;2023-03-14T03:16:48;98302.16;;;12.61;93.53
5522;BME280;2783;48.730;8.006;2023-03-14T03:19:13;98292.38;;;12.61;93.57
5522;BME280;2783;48.730;8.006;2023-03-14T03:21:39;98292.59;;;12.58;93.27
5522;BME280;2783;48.730;8.006;2023-03-14T03:24:04;98290.84;;;12.57;93.87
5522;BME280;2783;48.730;8.006;2023-03-14T03:26:30;98290.84;;;12.57;93.13
5522;BME280;2783;48.730;8.006;2023-03-14T03:28:55;98297.69;;;12.61;92.93
5522;BME280;2783;48.730;8.006;2023-03-14T03:31:20;98287.34;;;12.57;92.98
5522;BME280;2783;48.730;8.006;2023-03-14T03:33:45;98290.84;;;12.57;92.85
5522;BME280;2783;48.730;8.006;2023-03-14T03:36:11;98287.91;;;12.62;92.64
5522;BME280;2783;48.730;8.006;2023-03-14T03:38:36;98295.53;;;12.54;91.79
5522;BME280;2783;48.730;8.006;2023-03-14T03:41:02;98285.09;;;12.51;91.51
5522;BME280;2783;48.730;8.006;2023-03-14T03:43:27;98285.72;;;12.54;91.52
5522;BME280;2783;48.730;8.006;2023-03-14T03:45:53;98283.81;;;12.56;91.62
5522;BME280;2783;48.730;8.006;2023-03-14T03:48:18;98289.16;;;12.56;91.77
5522;BME280;2783;48.730;8.006;2023-03-14T03:50:44;98289.38;;;12.53;90.72
5522;BME280;2783;48.730;8.006;2023-03-14T03:53:09;98280.28;;;12.56;91.29
5522;BME280;2783;48.730;8.006;2023-03-14T03:55:34;98272.72;;;12.50;90.59
5522;BME280;2783;48.730;8.006;2023-03-14T03:58:00;98278.69;;;12.53;90.71
5522;BME280;2783;48.730;8.006;2023-03-14T04:00:25;98277.63;;;12.56;90.96
5522;BME280;2783;48.730;8.006;2023-03-14T04:02:50;98266.53;;;12.49;90.34
5522;BME280;2783;48.730;8.006;2023-03-14T04:05:16;98261.84;;;12.53;90.17
5522;BME280;2783;48.730;8.006;2023-03-14T04:07:41;98259.06;;;12.54;89.84
5522;BME280;2783;48.730;8.006;2023-03-14T04:10:06;98260.75;;;12.55;89.59
5522;BME280;2783;48.730;8.006;2023-03-14T04:12:32;98252.69;;;12.57;89.65
5522;BME280;2783;48.730;8.006;2023-03-14T04:14:57;98247.63;;;12.52;88.74
5522;BME280;2783;48.730;8.006;2023-03-14T04:17:22;98242.84;;;12.57;89.79
5522;BME280;2783;48.730;8.006;2023-03-14T04:19:48;98228.97;;;12.52;88.90
5522;BME280;2783;48.730;8.006;2023-03-14T04:22:16;98230.47;;;12.56;88.06
5522;BME280;2783;48.730;8.006;2023-03-14T04:24:41;98237.72;;;12.54;87.89
5522;BME280;2783;48.730;8.006;2023-03-14T04:27:06;98231.34;;;12.57;87.93
5522;BME280;2783;48.730;8.006;2023-03-14T04:29:32;98221.50;;;12.57;87.83
5522;BME280;2783;48.730;8.006;2023-03-14T04:31:57;98210.84;;;12.57;87.11
5522;BME280;2783;48.730;8.006;2023-03-14T04:34:22;98217.91;;;12.58;86.55
5522;BME280;2783;48.730;8.006;2023-03-14T04:36:47;98213.28;;;12.60;86.57
5522;BME280;2783;48.730;8.006;2023-03-14T04:39:13;98210.44;;;12.63;87.32
5522;BME280;2783;48.730;8.006;2023-03-14T04:41:38;98203.38;;;12.50;86.56
5522;BME280;2783;48.730;8.006;2023-03-14T04:44:03;98220.25;;;12.50;87.44
5522;BME280;2783;48.730;8.006;2023-03-14T04:46:29;98222.06;;;12.50;88.44
5522;BME280;2783;48.730;8.006;2023-03-14T04:48:54;98209.88;;;12.46;87.36
5522;BME280;2783;48.730;8.006;2023-03-14T04:51:21;98207.09;;;12.47;86.92
5522;BME280;2783;48.730;8.006;2023-03-14T04:53:48;98201.97;;;12.44;86.85
5522;BME280;2783;48.730;8.006;2023-03-14T04:56:13;98195.06;;;12.42;85.79
5522;BME280;2783;48.730;8.006;2023-03-14T04:58:38;98200.81;;;12.48;86.64
5522;BME280;2783;48.730;8.006;2023-03-14T05:01:04;98202.31;;;12.52;86.18
5522;BME280;2783;48.730;8.006;2023-03-14T05:03:29;98198.69;;;12.53;86.56
5522;BME280;2783;48.730;8.006;2023-03-14T05:05:55;98204.44;;;12.47;86.92
5522;BME280;2783;48.730;8.006;2023-03-14T05:08:22;98207.84;;;12.49;87.11
5522;BME280;2783;48.730;8.006;2023-03-14T05:10:57;98198.38;;;12.45;86.59
5522;BME280;2783;48.730;8.006;2023-03-14T05:13:23;98189.72;;;12.42;86.92
5522;BME280;2783;48.730;8.006;2023-03-14T05:15:48;98198.38;;;12.45;86.86
5522;BME280;2783;48.730;8.006;2023-03-14T05:18:15;98195.16;;;12.40;86.48
5522;BME280;2783;48.730;8.006;2023-03-14T05:20:40;98186.41;;;12.38;86.61
5522;BME280;2783;48.730;8.006;2023-03-14T05:23:08;98179.06;;;12.42;87.46
5522;BME280;2783;48.730;8.006;2023-03-14T05:25:33;98176.91;;;12.34;87.53
5522;BME280;2783;48.730;8.006;2023-03-14T05:27:58;98170.09;;;12.30;87.87
5522;BME280;2783;48.730;8.006;2023-03-14T05:30:23;98163.47;;;12.23;87.79
5522;BME280;2783;48.730;8.006;2023-03-14T05:32:49;98160.16;;;12.20;88.57
5522;BME280;2783;48.730;8.006;2023-03-14T05:35:14;98154.81;;;12.20;87.66
5522;BME280;2783;48.730;8.006;2023-03-14T05:37:39;98150.03;;;12.25;87.89
5522;BME280;2783;48.730;8.006;2023-03-14T05:40:05;98148.84;;;12.16;87.49
5522;BME280;2783;48.730;8.006;2023-03-14T05:42:31;98142.97;;;12.11;87.32
5522;BME280;2783;48.730;8.006;2023-03-14T05:44:56;98127.84;;;12.12;88.51
5522;BME280;2783;48.730;8.006;2023-03-14T05:47:22;98138.19;;;12.16;88.83
5522;BME280;2783;48.730;8.006;2023-03-14T05:49:48;98135.75;;;12.13;88.25
5522;BME280;2783;48.730;8.006;2023-03-14T05:52:13;98126.06;;;12.12;88.03
5522;BME280;2783;48.730;8.006;2023-03-14T05:54:39;98123.78;;;12.06;87.49
5522;BME280;2783;48.730;8.006;2023-03-14T05:57:04;98128.28;;;12.06;88.26
5522;BME280;2783;48.730;8.006;2023-03-14T05:59:29;98131.06;;;12.04;88.05
5522;BME280;2783;48.730;8.006;2023-03-14T06:01:55;98122.97;;;12.06;87.62
5522;BME280;2783;48.730;8.006;2023-03-14T06:04:20;98122.09;;;12.05;87.35
5522;BME280;2783;48.730;8.006;2023-03-14T06:06:45;98105.25;;;12.05;86.77
5522;BME280;2783;48.730;8.006;2023-03-14T06:09:10;98112.31;;;12.06;86.95
5522;BME280;2783;48.730;8.006;2023-03-14T06:11:36;98114.63;;;12.10;86.57
5522;BME280;2783;48.730;8.006;2023-03-14T06:14:01;98115.50;;;12.11;86.52
5522;BME280;2783;48.730;8.006;2023-03-14T06:16:26;98112.50;;;12.15;86.63
5522;BME280;2783;48.730;8.006;2023-03-14T06:18:51;98114.97;;;12.18;86.15
5522;BME280;2783;48.730;8.006;2023-03-14T06:21:17;98114.66;;;12.35;86.19
5522;BME280;2783;48.730;8.006;2023-03-14T06:23:42;98116.25;;;12.50;84.84
5522;BME280;2783;48.730;8.006;2023-03-14T06:26:08;98103.03;;;12.97;83.64
5522;BME280;2783;48.730;8.006;2023-03-14T06:28:33;98103.63;;;13.13;80.78
5522;BME280;2783;48.730;8.006;2023-03-14T06:30:58;98104.06;;;12.95;81.63
5522;BME280;2783;48.730;8.006;2023-03-14T06:33:24;98097.94;;;12.82;82.48
5522;BME280;2783;48.730;8.006;2023-03-14T06:35:49;98100.19;;;12.75;83.06
5522;BME280;2783;48.730;8.006;2023-03-14T06:38:14;98102.84;;;12.75;83.12
5522;BME280;2783;48.730;8.006;2023-03-14T06:40:40;98109.28;;;12.73;83.73
5522;BME280;2783;48.730;8.006;2023-03-14T06:43:05;98114.59;;;12.73;83.90
5522;BME280;2783;48.730;8.006;2023-03-14T06:45:30;98108.63;;;12.69;83.88
5522;BME280;2783;48.730;8.006;2023-03-14T06:47:56;98104.34;;;12.67;84.20
5522;BME280;2783;48.730;8.006;2023-03-14T06:50:21;98107.34;;;12.75;84.23
5522;BME280;2783;48.730;8.006;2023-03-14T06:52:47;98107.34;;;12.75;83.84
5522;BME280;2783;48.730;8.006;2023-03-14T06:55:13;98111.59;;;12.77;83.91
5522;BME280;2783;48.730;8.006;2023-03-14T06:57:39;98094.53;;;12.80;83.76
5522;BME280;2783;48.730;8.006;2023-03-14T07:00:04;98080.84;;;12.84;83.45
5522;BME280;2783;48.730;8.006;2023-03-14T07:02:30;98097.72;;;12.85;82.64
5522;BME280;2783;48.730;8.006;2023-03-14T07:04:55;98099.31;;;12.87;82.41
5522;BME280;2783;48.730;8.006;2023-03-14T07:07:20;98090.44;;;12.99;82.32
5522;BME280;2783;48.730;8.006;2023-03-14T07:09:47;98085.22;;;13.21;81.77
5522;BME280;2783;48.730;8.006;2023-03-14T07:12:12;98083.31;;;13.82;79.64
5522;BME280;2783;48.730;8.006;2023-03-14T07:14:37;98081.16;;;14.32;74.46
5522;BME280;2783;48.730;8.006;2023-03-14T07:17:03;98098.19;;;14.76;72.86
5522;BME280;2783;48.730;8.006;2023-03-14T07:19:28;98095.97;;;15.14;73.21
5522;BME280;2783;48.730;8.006;2023-03-14T07:21:53;98101.09;;;15.80;67.73
5522;BME280;2783;48.730;8.006;2023-03-14T07:24:19;98104.97;;;15.66;67.71
5522;BME280;2783;48.730;8.006;2023-03-14T07:26:44;98096.28;;;17.36;63.38
5522;BME280;2783;48.730;8.006;2023-03-14T07:29:09;98096.09;;;19.07;55.01
5522;BME280;2783;48.730;8.006;2023-03-14T07:31:35;98093.13;;;19.28;52.54
5522;BME280;2783;48.730;8.006;2023-03-14T07:34:00;98101.19;;;17.70;56.73
5522;BME280;2783;48.730;8.006;2023-03-14T07:36:25;98105.91;;;16.18;62.94
5522;BME280;2783;48.730;8.006;2023-03-14T07:38:50;98100.88;;;15.51;67.07
5522;BME280;2783;48.730;8.006;2023-03-14T07:41:17;98103.84;;;15.15;69.79
5522;BME280;2783;48.730;8.006;2023-03-14T07:43:42;98099.38;;;14.94;69.94
5522;BME280;2783;48.730;8.006;2023-03-14T07:46:08;98111.44;;;14.88;69.98
5522;BME280;2783;48.730;8.006;2023-03-14T07:48:33;98106.19;;;14.87;70.85
5522;BME280;2783;48.730;8.006;2023-03-14T07:50:59;98114.84;;;14.90;71.17
5522;BME280;2783;48.730;8.006;2023-03-14T07:53:24;98118.00;;;14.73;71.61
5522;BME280;2783;48.730;8.006;2023-03-14T07:55:53;98126.78;;;14.64;72.66
5522;BME280;2783;48.730;8.006;2023-03-14T07:58:18;98126.88;;;14.40;73.05
5522;BME280;2783;48.730;8.006;2023-03-14T08:00:44;98134.13;;;14.27;74.35
5522;BME280;2783;48.730;8.006;2023-03-14T08:03:09;98131.28;;;14.18;74.80
5522;BME280;2783;48.730;8.006;2023-03-14T08:05:35;98135.38;;;14.00;75.24
5522;BME280;2783;48.730;8.006;2023-03-14T08:08:01;98134.34;;;13.79;75.80
5522;BME280;2783;48.730;8.006;2023-03-14T08:10:26;98143.28;;;13.78;78.47
5522;BME280;2783;48.730;8.006;2023-03-14T08:12:53;98146.22;;;13.75;78.83
5522;BME280;2783;48.730;8.006;2023-03-14T08:15:19;98160.53;;;13.74;79.54
5522;BME280;2783;48.730;8.006;2023-03-14T08:17:44;98148.38;;;13.70;79.21
5522;BME280;2783;48.730;8.006;2023-03-14T08:20:10;98139.16;;;13.74;79.59
5522;BME280;2783;48.730;8.006;2023-03-14T08:22:36;98151.56;;;13.75;78.34
5522;BME280;2783;48.730;8.006;2023-03-14T08:25:02;98151.59;;;13.86;79.72
5522;BME280;2783;48.730;8.006;2023-03-14T08:27:27;98156.81;;;13.87;78.36
5522;BME280;2783;48.730;8.006;2023-03-14T08:29:52;98151.16;;;13.92;77.98
5522;BME280;2783;48.730;8.006;2023-03-14T08:32:18;98149.69;;;13.99;77.34
5522;BME280;2783;48.730;8.006;2023-03-14T08:34:45;98154.41;;;13.95;76.37
5522;BME280;2783;48.730;8.006;2023-03-14T08:37:10;98163.56;;;14.04;75.83
5522;BME280;2783;48.730;8.006;2023-03-14T08:39:35;98164.31;;;14.17;75.51
5522;BME280;2783;48.730;8.006;2023-03-14T08:42:01;98170.84;;;14.36;74.74
5522;BME280;2783;48.730;8.006;2023-03-14T08:44:26;98175.88;;;14.41;73.04
5522;BME280;2783;48.730;8.006;2023-03-14T08:46:51;98182.44;;;14.48;73.30
5522;BME280;2783;48.730;8.006;2023-03-14T08:49:16;98194.34;;;14.44;72.48
5522;BME280;2783;48.730;8.006;2023-03-14T08:51:42;98186.34;;;14.55;72.06
5522;BME280;2783;48.730;8.006;2023-03-14T08:54:09;98179.72;;;14.37;72.88
5522;BME280;2783;48.730;8.006;2023-03-14T08:56:35;98186.22;;;14.22;72.76
5522;BME280;2783;48.730;8.006;2023-03-14T08:59:02;98180.22;;;14.31;73.23
5522;BME280;2783;48.730;8.006;2023-03-14T09:01:28;98187.25;;;14.32;72.41
5522;BME280;2783;48.730;8.006;2023-03-14T09:03:53;98175.50;;;14.34;72.99
5522;BME280;2783;48.730;8.006;2023-03-14T09:06:18;98192.53;;;14.44;73.29
5522;BME280;2783;48.730;8.006;2023-03-14T09:08:43;98184.91;;;14.62;72.58
5522;BME280;2783;48.730;8.006;2023-03-14T09:11:09;98182.22;;;14.73;71.67
5522;BME280;2783;48.730;8.006;2023-03-14T09:13:35;98181.63;;;14.70;71.54
5522;BME280;2783;48.730;8.006;2023-03-14T09:16:01;98194.50;;;14.65;71.46
5522;BME280;2783;48.730;8.006;2023-03-14T09:18:26;98168.22;;;14.59;70.61
5522;BME280;2783;48.730;8.006;2023-03-14T09:20:51;98179.03;;;14.46;71.33
5522;BME280;2783;48.730;8.006;2023-03-14T09:23:17;98192.16;;;14.38;70.17
5522;BME280;2783;48.730;8.006;2023-03-14T09:25:42;98183.41;;;14.36;72.24
5522;BME280;2783;48.730;8.006;2023-03-14T09:28:07;98198.53;;;14.24;72.31
5522;BME280;2783;48.730;8.006;2023-03-14T09:30:33;98203.72;;;14.15;74.68
5522;BME280;2783;48.730;8.006;2023-03-14T09:32:58;98205.38;;;14.05;77.00
5522;BME280;2783;48.730;8.006;2023-03-14T09:35:24;98220.13;;;13.87;78.84
5522;BME280;2783;48.730;8.006;2023-03-14T09:37:49;98199.53;;;13.76;79.43
5522;BME280;2783;48.730;8.006;2023-03-14T09:40:15;98206.63;;;13.65;81.61
5522;BME280;2783;48.730;8.006;2023-03-14T09:42:42;98223.53;;;13.53;82.28
5522;BME280;2783;48.730;8.006;2023-03-14T09:45:23;98217.84;;;13.34;84.15
5522;BME280;2783;48.730;8.006;2023-03-14T09:47:50;98218.59;;;13.23;85.25
5522;BME280;2783;48.730;8.006;2023-03-14T09:50:15;98237.09;;;13.13;85.79
5522;BME280;2783;48.730;8.006;2023-03-14T09:52:42;98239.47;;;13.05;88.95
5522;BME280;2783;48.730;8.006;2023-03-14T09:55:17;98237.97;;;13.01;90.49
5522;BME280;2783;48.730;8.006;2023-03-14T09:57:43;98248.19;;;12.95;93.06
5522;BME280;2783;48.730;8.006;2023-03-14T10:00:20;98247.22;;;12.83;94.69
5522;BME280;2783;48.730;8.006;2023-03-14T10:02:55;98250.97;;;12.81;96.08
5522;BME280;2783;48.730;8.006;2023-03-14T10:05:22;98238.38;;;12.70;95.73
5522;BME280;2783;48.730;8.006;2023-03-14T10:07:48;98246.91;;;12.75;97.67
5522;BME280;2783;48.730;8.006;2023-03-14T10:10:16;98241.03;;;12.58;97.97
5522;BME280;2783;48.730;8.006;2023-03-14T10:12:44;98241.59;;;12.50;99.76
5522;BME280;2783;48.730;8.006;2023-03-14T10:15:11;98241.13;;;12.44;100.00
5522;BME280;2783;48.730;8.006;2023-03-14T10:17:49;98249.13;;;12.44;100.00
5522;BME280;2783;48.730;8.006;2023-03-14T10:22:59;98252.31;;;12.36;100.00
5522;BME280;2783;48.730;8.006;2023-03-14T10:25:26;98264.13;;;12.32;100.00
5522;BME280;2783;48.730;8.006;2023-03-14T10:27:52;98266.63;;;12.35;100.00
5522;BME280;2783;48.730;8.006;2023-03-14T10:30:33;98265.53;;;12.25;100.00
5522;BME280;2783;48.730;8.006;2023-03-14T10:33:07;98272.13;;;12.32;100.00
5522;BME280;2783;48.730;8.006;2023-03-14T10:35:32;98282.41;;;12.38;100.00
5522;BME280;2783;48.730;8.006;2023-03-14T10:37:59;98283.97;;;12.28;100.00
5522;BME280;2783;48.730;8.006;2023-03-14T10:40:37;98295.69;;;12.26;100.00
5522;BME280;2783;48.730;8.006;2023-03-14T10:43:04;98291.63;;;12.20;100.00
5522;BME280;2783;48.730;8.006;2023-03-14T10:45:34;98307.63;;;12.20;100.00
5522;BME280;2783;48.730;8.006;2023-03-14T10:48:34;98315.94;;;12.16;100.00
5522;BME280;2783;48.730;8.006;2023-03-14T10:50:56;98327.53;;;12.15;100.00
5522;BME280;2783;48.730;8.006;2023-03-14T10:53:22;98335.16;;;12.21;100.00
5522;BME280;2783;48.730;8.006;2023-03-14T10:55:47;98338.75;;;12.20;100.00
5522;BME280;2783;48.730;8.006;2023-03-14T10:58:25;98356.84;;;12.15;100.00
5522;BME280;2783;48.730;8.006;2023-03-14T11:00:53;98386.25;;;12.13;100.00
5522;BME280;2783;48.730;8.006;2023-03-14T11:03:22;98397.91;;;12.12;100.00
5522;BME280;2783;48.730;8.006;2023-03-14T11:05:51;98421.22;;;11.94;100.00
5522;BME280;2783;48.730;8.006;2023-03-14T11:10:44;98427.25;;;11.70;100.00
5522;BME280;2783;48.730;8.006;2023-03-14T11:13:25;98427.63;;;11.64;100.00
5522;BME280;2783;48.730;8.006;2023-03-14T11:15:54;98446.84;;;11.69;100.00
5522;BME280;2783;48.730;8.006;2023-03-14T11:21:05;98474.59;;;11.65;97.10
5522;BME280;2783;48.730;8.006;2023-03-14T11:28:41;98522.91;;;11.59;91.07
5522;BME280;2783;48.730;8.006;2023-03-14T11:31:16;98544.09;;;11.60;91.14
5522;BME280;2783;48.730;8.006;2023-03-14T11:36:18;98550.34;;;11.75;90.34
5522;BME280;2783;48.730;8.006;2023-03-14T11:41:57;98553.03;;;12.03;86.16
5522;BME280;2783;48.730;8.006;2023-03-14T11:44:03;98572.09;;;12.25;76.92
5522;BME280;2783;48.730;8.006;2023-03-14T11:46:31;98575.31;;;12.44;74.82
5522;BME280;2783;48.730;8.006;2023-03-14T11:51:43;98591.81;;;13.05;70.85
5522;BME280;2783;48.730;8.006;2023-03-14T11:54:14;98603.91;;;13.11;69.88
5522;BME280;2783;48.730;8.006;2023-03-14T11:59:14;98635.66;;;12.87;66.67
5522;BME280;2783;48.730;8.006;2023-03-14T12:04:18;98645.56;;;12.99;64.89
5522;BME280;2783;48.730;8.006;2023-03-14T12:06:50;98657.78;;;13.03;64.52
5522;BME280;2783;48.730;8.006;2023-03-14T12:09:19;98667.50;;;12.90;63.49
5522;BME280;2783;48.730;8.006;2023-03-14T12:12:02;98675.53;;;12.76;59.47
5522;BME280;2783;48.730;8.006;2023-03-14T12:14:35;98689.31;;;12.69;58.18
5522;BME280;2783;48.730;8.006;2023-03-14T12:17:05;98699.72;;;12.59;57.88
5522;BME280;2783;48.730;8.006;2023-03-14T12:19:32;98707.53;;;12.48;58.81
5522;BME280;2783;48.730;8.006;2023-03-14T12:22:00;98712.00;;;12.48;57.53
5522;BME280;2783;48.730;8.006;2023-03-14T12:24:31;98714.16;;;12.55;57.72
5522;BME280;2783;48.730;8.006;2023-03-14T12:26:58;98744.66;;;12.51;56.10
5522;BME280;2783;48.730;8.006;2023-03-14T12:29:24;98754.34;;;12.38;54.65
5522;BME280;2783;48.730;8.006;2023-03-14T12:34:34;98774.69;;;12.25;52.34
5522;BME280;2783;48.730;8.006;2023-03-14T12:37:33;98756.47;;;12.18;54.23
5522;BME280;2783;48.730;8.006;2023-03-14T12:40:05;98772.13;;;12.24;54.48
5522;BME280;2783;48.730;8.006;2023-03-14T12:42:57;98777.47;;;12.08;55.40
5522;BME280;2783;48.730;8.006;2023-03-14T12:48:01;98795.09;;;11.81;54.71
5522;BME280;2783;48.730;8.006;2023-03-14T12:50:33;98800.22;;;11.84;55.29
5522;BME280;2783;48.730;8.006;2023-03-14T12:55:36;98800.69;;;12.06;53.04
5522;BME280;2783;48.730;8.006;2023-03-14T12:58:08;98808.34;;;12.12;51.67
5522;BME280;2783;48.730;8.006;2023-03-14T13:00:38;98816.00;;;12.18;52.33
5522;BME280;2783;48.730;8.006;2023-03-14T13:03:20;98823.75;;;12.07;50.06
5522;BME280;2783;48.730;8.006;2023-03-14T13:05:59;98835.94;;;12.11;50.58
5522;BME280;2783;48.730;8.006;2023-03-14T13:08:32;98839.28;;;12.15;52.40
5522;BME280;2783;48.730;8.006;2023-03-14T13:10:58;98852.84;;;12.26;51.12
5522;BME280;2783;48.730;8.006;2023-03-14T13:13:24;98855.88;;;12.35;50.89
5522;BME280;2783;48.730;8.006;2023-03-14T13:15:56;98858.75;;;12.46;50.90
5522;BME280;2783;48.730;8.006;2023-03-14T13:18:30;98870.72;;;12.39;50.16
5522;BME280;2783;48.730;8.006;2023-03-14T13:21:01;98864.28;;;12.28;48.78
5522;BME280;2783;48.730;8.006;2023-03-14T13:23:29;98877.34;;;12.32;48.79
5522;BME280;2783;48.730;8.006;2023-03-14T13:25:55;98896.28;;;12.43;50.23
5522;BME280;2783;48.730;8.006;2023-03-14T13:28:21;98892.31;;;12.50;50.63
5522;BME280;2783;48.730;8.006;2023-03-14T13:30:47;98891.69;;;12.16;48.68
5522;BME280;2783;48.730;8.006;2023-03-14T13:33:15;98896.31;;;12.12;48.78
5522;BME280;2783;48.730;8.006;2023-03-14T13:35:47;98907.31;;;12.06;49.67
5522;BME280;2783;48.730;8.006;2023-03-14T13:38:15;98904.13;;;12.00;49.84
5522;BME280;2783;48.730;8.006;2023-03-14T13:40:42;98899.75;;;11.99;50.07
5522;BME280;2783;48.730;8.006;2023-03-14T13:46:21;98915.38;;;12.51;49.01
5522;BME280;2783;48.730;8.006;2023-03-14T13:48:27;98919.94;;;13.52;48.94
5522;BME280;2783;48.730;8.006;2023-03-14T13:50:55;98933.44;;;14.05;47.30
5522;BME280;2783;48.730;8.006;2023-03-14T13:53:21;98925.31;;;14.07;47.15
5522;BME280;2783;48.730;8.006;2023-03-14T13:55:46;98936.84;;;13.67;47.25
5522;BME280;2783;48.730;8.006;2023-03-14T13:58:22;98958.00;;;13.42;48.32
5522;BME280;2783;48.730;8.006;2023-03-14T14:01:01;98939.69;;;13.78;50.74
5522;BME280;2783;48.730;8.006;2023-03-14T14:03:27;98939.56;;;14.21;48.12